Have a Safe July 4th! 

Flight Track Log - Related Links

Times and Time Zones

All times are in EDT time to prevent confusion due to time zone crossing. See the CSN3253 flight status page for this flight to view local times or setup timezone preferences in your user account.

Time Position Orientation Groundspeed Altitude Reporting Facility
EDT Latitude Longitude Course Direction KTS MPH feet Rate Location/Type
Sat 08:27:00 PM 25.3098 110.1514 48° Northeast  Level Estimated
Sat 08:28:00 PM 25.4014 110.2638 48° Northeast  Level Estimated
Sat 08:29:00 PM 25.4928 110.3764 48° Northeast  Level Estimated
Sat 08:30:00 PM 25.5843 110.4891 48° Northeast  Level Estimated
Sat 08:31:00 PM 25.6756 110.6021 48° Northeast  Level Estimated
Sat 08:32:00 PM 25.7668 110.7151 48° Northeast  Level Estimated
Sat 08:33:00 PM 25.8580 110.8284 48° Northeast  Level Estimated
Sat 08:34:00 PM 25.9490 110.9418 48° Northeast  Level Estimated
Sat 08:35:00 PM 26.0400 111.0554 48° Northeast  Level Estimated
Sat 08:36:00 PM 26.1309 111.1692 48° Northeast  Level Estimated
Sat 08:37:00 PM 26.2217 111.2832 48° Northeast  Level Estimated
Sat 08:38:00 PM 26.3124 111.3973 48° Northeast  Level Estimated
Sat 08:39:00 PM 26.4030 111.5117 48° Northeast  Level Estimated
Sat 08:40:00 PM 26.4935 111.6262 49° Northeast  Level Estimated
Sat 08:41:00 PM 26.5839 111.7408 49° Northeast  Level Estimated
Sat 08:42:00 PM 26.6743 111.8557 49° Northeast  Level Estimated
Sat 08:43:00 PM 26.7645 111.9707 49° Northeast  Level Estimated
Sat 08:44:00 PM 26.8547 112.0860 49° Northeast  Level Estimated
Sat 08:45:00 PM 26.9447 112.2014 49° Northeast  Level Estimated
Sat 08:46:00 PM 27.0347 112.3170 49° Northeast  Level Estimated
Sat 08:47:00 PM 27.1246 112.4327 49° Northeast  Level Estimated
Sat 08:48:00 PM 27.2143 112.5487 49° Northeast  Level Estimated
Sat 08:49:00 PM 27.3040 112.6649 49° Northeast  Level Estimated
Sat 08:50:00 PM 27.3936 112.7812 49° Northeast  Level Estimated
Sat 08:51:00 PM 27.4831 112.8977 49° Northeast  Level Estimated
Sat 08:52:00 PM 27.5725 113.0145 49° Northeast  Level Estimated
Sat 08:53:00 PM 27.6618 113.1314 49° Northeast  Level Estimated
Sat 08:54:00 PM 27.7510 113.2485 49° Northeast  Level Estimated
Sat 08:55:00 PM 27.8401 113.3658 49° Northeast  Level Estimated
Sat 08:56:00 PM 27.9291 113.4832 49° Northeast  Level Estimated
Sat 08:57:00 PM 28.0180 113.6009 49° Northeast  Level Estimated
Sat 08:58:00 PM 28.1068 113.7188 49° Northeast  Level Estimated
Sat 08:59:00 PM 28.1955 113.8369 50° Northeast  Level Estimated
Sat 09:00:00 PM 28.2840 113.9551 50° Northeast  Level Estimated
Sat 09:01:00 PM 28.3725 114.0736 50° Northeast  Level Estimated
Sat 09:02:00 PM 28.4609 114.1922 50° Northeast  Level Estimated
Sat 09:03:00 PM 28.5492 114.3111 50° Northeast  Level Estimated
Sat 09:04:00 PM 28.6374 114.4302 50° Northeast  Level Estimated
Sat 09:05:00 PM 28.7255 114.5494 50° Northeast  Level Estimated
Sat 09:06:00 PM 28.8134 114.6689 50° Northeast  Level Estimated
Sat 09:07:00 PM 28.9013 114.7885 50° Northeast  Level Estimated
Sat 09:08:00 PM 28.9891 114.9084 50° Northeast  Level Estimated
Sat 09:09:00 PM 29.0767 115.0285 50° Northeast  Level Estimated
Sat 09:10:00 PM 29.1643 115.1487 50° Northeast  Level Estimated
Sat 09:11:00 PM 29.2517 115.2692 50° Northeast  Level Estimated
Sat 09:12:00 PM 29.3391 115.3899 50° Northeast  Level Estimated
Sat 09:13:00 PM 29.4263 115.5108 50° Northeast  Level Estimated
Sat 09:14:00 PM 29.5134 115.6319 50° Northeast  Level Estimated
Sat 09:15:00 PM 29.6004 115.7532 50° Northeast  Level Estimated
Sat 09:16:00 PM 29.6873 115.8747 51° Northeast  Level Estimated
Sat 09:17:00 PM 29.7740 115.9964 51° Northeast  Level Estimated
Sat 09:18:00 PM 29.8607 116.1183 51° Northeast  Level Estimated
Sat 09:19:00 PM 29.9473 116.2405 51° Northeast  Level Estimated
Sat 09:20:00 PM 30.0337 116.3628 51° Northeast  Level Estimated
Sat 09:21:00 PM 30.1201 116.4854 51° Northeast  Level Estimated
Sat 09:22:00 PM 30.2063 116.6082 51° Northeast  Level Estimated
Sat 09:23:00 PM 30.2924 116.7312 51° Northeast  Level Estimated
Sat 09:24:00 PM 30.3784 116.8544 51° Northeast  Level Estimated
Sat 09:25:00 PM 30.4642 116.9779 51° Northeast  Level Estimated
Sat 09:26:00 PM 30.5500 117.1015 51° Northeast  Level Estimated
Sat 09:27:00 PM 30.6356 117.2254 51° Northeast  Level Estimated
Sat 09:28:00 PM 30.7212 117.3495 51° Northeast  Level Estimated
Sat 09:29:00 PM 30.8066 117.4738 51° Northeast  Level Estimated
Sat 09:30:00 PM 30.8918 117.5983 51° Northeast  Level Estimated
Sat 09:31:00 PM 30.9770 117.7231 51° Northeast  Level Estimated
Sat 09:32:00 PM 31.0621 117.8480 52° Northeast  Level Estimated
Sat 09:33:00 PM 31.1470 117.9732 52° Northeast  Level Estimated
Sat 09:34:00 PM 31.2318 118.0986 52° Northeast  Level Estimated
Sat 09:35:00 PM 31.3165 118.2243 52° Northeast  Level Estimated
Sat 09:36:00 PM 31.4010 118.3502 52° Northeast  Level Estimated
Sat 09:37:00 PM 31.4855 118.4763 52° Northeast  Level Estimated
Sat 09:38:00 PM 31.5698 118.6026 52° Northeast  Level Estimated
Sat 09:39:00 PM 31.6540 118.7292 52° Northeast  Level Estimated
Sat 09:40:00 PM 31.7380 118.8559 52° Northeast  Level Estimated
Sat 09:41:00 PM 31.7421 118.8620 52° Northeast  Level Estimated
Sat 09:42:00 PM 31.7421 118.8620 270° West  Level Estimated
Sat 09:43:00 PM 31.7421 118.8620 270° West  Level Estimated
Sat 09:44:00 PM 31.7421 118.8620 270° West  Level Estimated
Sat 09:45:00 PM 31.7421 118.8620 270° West  Level Estimated
Sat 09:46:00 PM 31.7421 118.8620 270° West  Level Estimated
Sat 09:47:00 PM 31.7421 118.8620 270° West  Level Estimated
Sat 09:48:00 PM 31.7421 118.8620 270° West  Level Estimated
Sat 09:49:00 PM 31.7421 118.8620 270° West  Level Estimated
Sat 09:50:00 PM 31.7421 118.8620 270° West  Level Estimated
Sat 09:51:00 PM 31.7421 118.8620 270° West  Level Estimated
Sat 09:52:00 PM 31.7421 118.8620 270° West  Level Estimated
Sat 09:53:00 PM 31.7421 118.8620 270° West  Level Estimated
Sat 09:54:00 PM 31.7421 118.8620 270° West  Level Estimated
Sat 09:55:00 PM 31.7421 118.8620 270° West  Level Estimated
Sat 09:56:00 PM 31.7421 118.8620 270° West  Level Estimated
Sat 09:57:00 PM 31.7421 118.8620 270° West  Level Estimated

Login

Don't have an account? Register now (free) for customized features, flight alerts, and more!